Airfield :







YOU CAN JOIN US ON...

 
LOGIN :

Register | Disclaimer

   EN    FR    IT 

 









Legend :    VFR   Marginal VFR   IFR   Intensive IFR   Very Intensive IFR
Visi :
Ceiling :
>= 8 km
>= 3000ft
5 to 8 km
1000 to 3000 ft
1500m to 5 km
500 to 1000 ft
800 to 1500m
200 to 500 ft
< 800m
< 200 ft
Symbols :   Thunderstorms  Fog  Heavy snow  Heavy precipitations  Wind > 20 kt






- Airport Elevation : 271 ft


KBAF - Barnes Municipal

CURRENT METAR :
  • 231853Z 31015G22KT 10SM CLR 18/02 A2989 RMK AO2 PK WND 29026/1808 SLP124 T01830017

EXPIRED METARs :
  • 231753Z 30013G19KT 10SM SCT070 18/02 A2987 RMK AO2 PK WND 32026/1722 SLP117 T01830022 10183 20117 53005
  • 231653Z 29014G20KT 10SM FEW055 18/04 A2986 RMK AO2 SLP114 T01780039

TAF KBAF
Valid from the 23 at 18:00 until the 24 at 18:00 UTC


231733Z 2318/2418 29012G22KT P6SM FEW040
FM232100 28008KT P6SM FEW040
FM240100 25004KT P6SM SKC
FM240800 22004KT P6SM SKC
FM241300 19005KT P6SM SKC



MET'MAP, your aeronautical weather chart ! - Copyright ORBIFLY December 2007 - Disclaimer

ORBIFLY MET'MAP TEAM :

Programming & Development : Alexandra Zaïnal
Concept & Development : Baudouin d'Aumeries
Co-Development & Prog : Marc-Olivier Méhu
Technical & hardware support : Manuel Goepfert

Contact : metmap@orbifly.com




SOURCES & CREDITS :

   NOAA